createdAt,value
2017-10-09T00:01:15.882Z,1.00
2017-10-09T00:03:18.341Z,1.10
2017-10-09T00:05:20.777Z,1.00
2017-10-09T00:07:23.351Z,1.00
2017-10-09T00:09:25.790Z,1.30
2017-10-09T00:11:28.227Z,1.20
2017-10-09T00:13:30.739Z,1.00
2017-10-09T00:15:33.172Z,1.07
2017-10-09T00:17:35.608Z,1.17
2017-10-09T00:19:38.073Z,1.10
2017-10-09T00:21:40.508Z,1.30
2017-10-09T00:23:42.944Z,1.27
2017-10-09T00:25:45.409Z,1.30
2017-10-09T00:27:47.846Z,1.20
2017-10-09T00:29:50.279Z,1.10
2017-10-09T00:31:52.750Z,1.03
2017-10-09T00:33:55.188Z,1.37
2017-10-09T00:35:57.732Z,1.00
2017-10-09T00:38:00.208Z,1.20
2017-10-09T00:40:02.648Z,1.20
2017-10-09T00:42:05.087Z,1.10
2017-10-09T00:44:07.561Z,1.00
2017-10-09T00:46:09.995Z,1.00
2017-10-09T00:48:12.491Z,1.20
2017-10-09T00:50:14.960Z,1.10
2017-10-09T00:52:17.401Z,1.00
2017-10-09T00:54:19.838Z,1.50
2017-10-09T00:56:22.342Z,1.07
2017-10-09T00:58:24.843Z,1.00
2017-10-09T01:00:27.299Z,1.07
2017-10-09T01:02:29.771Z,1.03
2017-10-09T01:04:32.207Z,1.07
2017-10-09T01:06:34.645Z,1.00
2017-10-09T01:08:37.215Z,1.13
2017-10-09T01:10:39.656Z,1.10
2017-10-09T01:12:42.093Z,0.90
2017-10-09T01:14:44.596Z,1.00
2017-10-09T01:16:47.063Z,1.33
2017-10-09T01:18:49.512Z,1.03
2017-10-09T01:20:52.001Z,1.10
2017-10-09T01:22:54.468Z,0.93
2017-10-09T01:24:56.947Z,1.20
2017-10-09T01:26:59.413Z,1.10
2017-10-09T01:29:01.869Z,1.13
2017-10-09T01:31:04.322Z,1.17
2017-10-09T01:33:06.791Z,1.20
2017-10-09T01:35:09.303Z,2.23
2017-10-09T01:37:11.844Z,1.30
2017-10-09T01:39:14.308Z,1.03
2017-10-09T01:41:16.817Z,1.27
2017-10-09T01:43:19.288Z,1.20
2017-10-09T01:45:21.786Z,1.40
2017-10-09T01:47:24.323Z,1.20
2017-10-09T01:49:26.772Z,1.30
2017-10-09T01:51:29.236Z,1.20
2017-10-09T01:53:31.672Z,1.30
2017-10-09T01:55:34.113Z,1.07
2017-10-09T01:57:36.567Z,1.10
2017-10-09T01:59:39.032Z,1.20
2017-10-09T02:01:41.473Z,1.10
2017-10-09T02:03:43.976Z,1.30
2017-10-09T02:05:46.449Z,1.10
2017-10-09T02:07:48.879Z,1.10
2017-10-09T02:09:51.383Z,1.03
2017-10-09T02:11:53.853Z,1.20
2017-10-09T02:13:56.290Z,1.10
2017-10-09T02:15:58.772Z,1.00
2017-10-09T02:18:01.207Z,1.10
2017-10-09T02:20:03.645Z,1.27
2017-10-09T02:22:06.102Z,1.03
2017-10-09T02:24:08.544Z,1.10
2017-10-09T02:26:11.047Z,1.30
2017-10-09T02:28:13.524Z,1.10
2017-10-09T02:30:15.979Z,1.00
2017-10-09T02:32:18.466Z,1.10
2017-10-09T02:34:20.944Z,1.10
2017-10-09T02:36:23.381Z,1.30
2017-10-09T02:38:26.073Z,1.10
2017-10-09T02:40:28.546Z,1.23
2017-10-09T02:42:30.972Z,1.20
2017-10-09T02:44:33.444Z,1.10
2017-10-09T02:46:35.905Z,1.10
2017-10-09T02:48:38.351Z,1.00
2017-10-09T02:50:40.896Z,1.20
2017-10-09T02:52:43.363Z,1.50
2017-10-09T02:54:45.788Z,1.10
2017-10-09T02:56:48.224Z,1.30
2017-10-09T02:58:50.684Z,1.00
2017-10-09T03:00:53.122Z,1.17
2017-10-09T03:02:55.557Z,1.10
2017-10-09T03:04:58.028Z,1.20
2017-10-09T03:07:00.463Z,1.43
2017-10-09T03:09:02.896Z,1.13
2017-10-09T03:11:05.356Z,1.10
2017-10-09T03:13:07.860Z,1.07
2017-10-09T03:15:10.297Z,1.30
2017-10-09T03:17:12.768Z,1.10
2017-10-09T03:19:15.196Z,1.40
2017-10-09T03:21:17.632Z,1.20
2017-10-09T03:23:25.701Z,1.10
2017-10-09T03:28:07.547Z,1.17
2017-10-09T03:30:10.015Z,1.20
2017-10-09T03:32:12.452Z,1.40
2017-10-09T03:34:14.898Z,1.03
2017-10-09T03:36:17.359Z,1.20
2017-10-09T03:38:19.797Z,1.20
2017-10-09T03:40:22.329Z,1.07
2017-10-09T03:42:24.806Z,1.20
2017-10-09T03:44:27.270Z,1.20
2017-10-09T03:46:29.724Z,1.20
2017-10-09T03:48:32.189Z,1.20
2017-10-09T03:50:34.623Z,1.13
2017-10-09T03:52:37.060Z,1.23
2017-10-09T03:54:39.583Z,1.10
2017-10-09T03:56:42.030Z,1.10
2017-10-09T03:58:44.738Z,1.33
2017-10-09T04:00:47.196Z,1.53
2017-10-09T04:02:49.637Z,1.20
2017-10-09T04:04:52.089Z,1.10
2017-10-09T04:06:54.560Z,1.33
2017-10-09T04:08:56.996Z,1.23
2017-10-09T04:10:59.440Z,1.13
2017-10-09T04:13:01.909Z,1.13
2017-10-09T04:15:04.365Z,1.20
2017-10-09T04:17:06.796Z,1.67
2017-10-09T04:19:09.415Z,1.10
2017-10-09T04:21:11.857Z,1.57
2017-10-09T04:23:14.304Z,1.23
2017-10-09T04:25:16.774Z,1.20
2017-10-09T04:27:19.232Z,1.50
2017-10-09T04:29:21.671Z,1.30
2017-10-09T04:31:24.127Z,0.90
2017-10-09T04:33:26.585Z,1.30
2017-10-09T04:35:29.024Z,1.23
2017-10-09T04:37:31.537Z,1.20
2017-10-09T04:39:34.885Z,1.13
2017-10-09T04:41:37.494Z,1.20
2017-10-09T04:43:39.964Z,1.10
2017-10-09T04:45:42.441Z,1.30
2017-10-09T04:47:44.885Z,1.10
2017-10-09T04:49:47.440Z,1.43
2017-10-09T04:51:49.899Z,1.33
2017-10-09T04:53:52.424Z,1.00
2017-10-09T04:55:54.928Z,1.10
2017-10-09T04:57:57.365Z,1.17
2017-10-09T04:59:59.836Z,1.13
2017-10-09T05:02:02.311Z,1.33
2017-10-09T05:04:04.758Z,1.37
2017-10-09T05:06:07.197Z,1.50
2017-10-09T05:08:09.680Z,0.97
2017-10-09T05:10:12.187Z,1.13
2017-10-09T05:12:14.668Z,1.00
2017-10-09T05:14:17.139Z,1.17
2017-10-09T05:16:19.579Z,1.13
2017-10-09T05:18:22.106Z,1.10
2017-10-09T05:20:24.612Z,1.10
2017-10-09T05:22:27.055Z,1.20
2017-10-09T05:24:29.576Z,1.10
2017-10-09T05:26:32.048Z,1.10
2017-10-09T05:28:34.487Z,1.27
2017-10-09T05:30:36.927Z,1.10
2017-10-09T05:32:39.456Z,1.10
2017-10-09T05:34:41.889Z,1.03
2017-10-09T05:36:44.428Z,1.40
2017-10-09T05:38:46.948Z,1.30
2017-10-09T05:40:49.413Z,1.10
2017-10-09T05:42:52.015Z,1.03
2017-10-09T05:44:54.503Z,1.30
2017-10-09T05:46:56.950Z,1.30
2017-10-09T05:48:59.392Z,1.00
2017-10-09T05:51:01.862Z,1.20
2017-10-09T05:53:04.425Z,1.60
2017-10-09T05:55:06.936Z,1.17
2017-10-09T05:57:09.413Z,1.07
2017-10-09T05:59:11.859Z,1.20
2017-10-09T06:01:14.335Z,1.20
2017-10-09T06:03:16.825Z,1.07
2017-10-09T06:05:19.285Z,1.20
2017-10-09T06:07:21.818Z,1.10
2017-10-09T06:09:24.302Z,1.20
2017-10-09T06:11:26.753Z,1.23
2017-10-09T06:13:29.195Z,1.30
2017-10-09T06:15:31.684Z,1.10
2017-10-09T06:17:34.132Z,1.30
2017-10-09T06:19:36.571Z,1.33
2017-10-09T06:21:39.058Z,1.50
2017-10-09T06:23:41.528Z,1.27
2017-10-09T06:25:43.982Z,1.20
2017-10-09T06:27:46.625Z,1.23
2017-10-09T06:29:49.136Z,1.43
2017-10-09T06:31:51.655Z,1.40
2017-10-09T06:33:54.170Z,1.10
2017-10-09T06:35:56.607Z,1.27
2017-10-09T06:37:59.044Z,1.20
2017-10-09T06:40:01.655Z,1.40
2017-10-09T06:42:04.092Z,1.13
2017-10-09T06:44:06.591Z,1.30
2017-10-09T06:46:09.067Z,1.10
2017-10-09T06:48:11.579Z,1.40
2017-10-09T06:50:14.029Z,1.23
2017-10-09T06:52:16.495Z,1.30
2017-10-09T06:54:18.983Z,1.40
2017-10-09T06:56:21.425Z,1.20
2017-10-09T06:58:23.905Z,1.30
2017-10-09T07:00:26.399Z,1.10
2017-10-09T07:02:28.836Z,1.10
2017-10-09T07:04:31.292Z,1.30
2017-10-09T07:06:33.835Z,1.40
2017-10-09T07:08:36.440Z,1.20
2017-10-09T07:10:39.110Z,1.30
2017-10-09T07:12:41.543Z,1.40
2017-10-09T07:14:43.976Z,1.37
2017-10-09T07:16:46.439Z,1.20
2017-10-09T07:18:48.882Z,1.40
2017-10-09T07:20:51.323Z,1.20
2017-10-09T07:22:53.875Z,1.50
2017-10-09T07:24:56.315Z,1.50
2017-10-09T07:26:58.777Z,1.23
2017-10-09T07:29:01.271Z,1.30
2017-10-09T07:31:03.710Z,1.37
2017-10-09T07:33:06.140Z,1.50
2017-10-09T07:35:08.649Z,1.40
2017-10-09T07:37:11.103Z,1.40
2017-10-09T07:39:13.548Z,1.63
2017-10-09T07:41:16.101Z,1.57
2017-10-09T07:43:18.544Z,1.93
2017-10-09T07:45:21.101Z,2.87
2017-10-09T07:47:23.575Z,2.50
2017-10-09T07:49:26.038Z,2.97
2017-10-09T07:51:28.492Z,2.73
2017-10-09T07:53:30.978Z,2.80
2017-10-09T07:55:33.450Z,2.17
2017-10-09T07:57:35.887Z,3.20
2017-10-09T07:59:38.351Z,3.33
2017-10-09T08:01:40.859Z,3.33
2017-10-09T08:03:43.304Z,4.50
2017-10-09T08:05:45.876Z,3.80
2017-10-09T08:07:48.322Z,2.67
2017-10-09T08:09:50.752Z,3.43
2017-10-09T08:11:53.225Z,2.77
2017-10-09T08:13:55.660Z,2.80
2017-10-09T08:15:58.096Z,2.47
2017-10-09T08:18:00.594Z,2.73
2017-10-09T08:20:03.046Z,3.03
2017-10-09T08:22:05.519Z,2.70
2017-10-09T08:24:07.988Z,2.97
2017-10-09T08:26:10.449Z,2.63
2017-10-09T08:28:12.913Z,2.67
2017-10-09T08:30:15.402Z,2.90
2017-10-09T08:32:17.864Z,2.80
2017-10-09T08:34:20.306Z,2.90
2017-10-09T08:36:22.781Z,2.50
2017-10-09T08:38:25.225Z,2.70
2017-10-09T08:40:27.756Z,3.00
2017-10-09T08:42:30.222Z,2.57
2017-10-09T08:44:32.677Z,2.90
2017-10-09T08:46:35.305Z,2.73
2017-10-09T08:48:37.807Z,2.63
2017-10-09T08:50:40.247Z,2.90
2017-10-09T08:52:42.675Z,2.27
2017-10-09T08:54:45.152Z,2.70
2017-10-09T08:56:47.601Z,2.43
2017-10-09T08:58:50.056Z,2.50
2017-10-09T09:00:52.525Z,2.07
2017-10-09T09:02:54.984Z,2.40
2017-10-09T09:04:57.415Z,2.43
2017-10-09T09:06:59.872Z,2.90
2017-10-09T09:09:02.360Z,2.40
2017-10-09T09:11:05.814Z,2.40
2017-10-09T09:13:08.296Z,2.47
2017-10-09T09:15:10.787Z,2.27
2017-10-09T09:17:13.249Z,2.33
2017-10-09T09:19:15.712Z,2.23
2017-10-09T09:21:18.163Z,2.20
2017-10-09T09:23:20.647Z,2.60
2017-10-09T09:25:23.125Z,2.60
2017-10-09T09:27:25.584Z,3.10
2017-10-09T09:29:28.069Z,2.43
2017-10-09T09:31:30.525Z,2.37
2017-10-09T09:33:32.990Z,2.70
2017-10-09T09:35:35.520Z,2.57
2017-10-09T09:37:37.984Z,2.37
2017-10-09T09:39:40.428Z,2.63
2017-10-09T09:41:42.861Z,2.20
2017-10-09T09:43:45.329Z,2.60
2017-10-09T09:45:47.774Z,2.40
2017-10-09T09:47:50.348Z,2.17
2017-10-09T09:49:52.808Z,2.50
2017-10-09T09:51:55.240Z,2.67
2017-10-09T09:53:57.696Z,2.40
2017-10-09T09:56:00.173Z,2.20
2017-10-09T09:58:02.646Z,2.50
2017-10-09T10:00:05.099Z,2.13
2017-10-09T10:02:07.563Z,1.93
2017-10-09T10:04:10.038Z,2.50
2017-10-09T10:06:12.478Z,2.70
2017-10-09T10:08:14.952Z,2.50
2017-10-09T10:10:17.416Z,2.80
2017-10-09T10:12:19.849Z,2.33
2017-10-09T10:14:22.306Z,2.07
2017-10-09T10:16:24.862Z,1.90
2017-10-09T10:18:27.326Z,2.17
2017-10-09T10:20:29.800Z,2.50
2017-10-09T10:22:32.249Z,2.20
2017-10-09T10:24:34.737Z,2.50
2017-10-09T10:26:37.193Z,2.00
2017-10-09T10:28:39.648Z,1.97
2017-10-09T10:30:42.085Z,2.20
2017-10-09T10:32:44.535Z,2.43
2017-10-09T10:34:46.971Z,2.50
2017-10-09T10:36:49.488Z,2.00
2017-10-09T10:38:51.983Z,2.77
2017-10-09T10:40:54.519Z,2.30
2017-10-09T10:42:56.965Z,2.50
2017-10-09T10:44:59.446Z,2.70
2017-10-09T10:47:01.904Z,2.33
2017-10-09T10:49:04.424Z,2.47
2017-10-09T10:51:06.878Z,3.03
2017-10-09T10:53:09.330Z,2.10
2017-10-09T10:55:11.820Z,2.27
2017-10-09T10:57:14.287Z,2.23
2017-10-09T10:59:16.740Z,2.60
2017-10-09T11:01:19.181Z,2.30
2017-10-09T11:03:21.645Z,2.93
2017-10-09T11:05:24.096Z,2.77
2017-10-09T11:07:26.591Z,2.47
2017-10-09T11:09:29.053Z,2.30
2017-10-09T11:11:31.511Z,2.27
2017-10-09T11:13:34.019Z,2.03
2017-10-09T11:15:36.487Z,2.40
2017-10-09T11:17:38.923Z,2.10
2017-10-09T11:19:41.677Z,2.20
2017-10-09T11:21:44.144Z,2.20
2017-10-09T11:23:47.175Z,2.43
2017-10-09T11:25:49.664Z,3.43
2017-10-09T11:27:52.240Z,2.13
2017-10-09T11:29:54.692Z,2.60
2017-10-09T11:31:57.200Z,2.50
2017-10-09T11:33:59.830Z,2.50
2017-10-09T11:36:03.000Z,1.93
2017-10-09T11:38:05.501Z,2.40
2017-10-09T11:40:07.985Z,2.50
2017-10-09T11:42:10.436Z,2.07
2017-10-09T11:44:12.910Z,2.60
2017-10-09T11:46:15.393Z,2.43
2017-10-09T11:48:17.856Z,2.60
2017-10-09T11:50:20.341Z,2.67
2017-10-09T11:52:22.796Z,1.83
2017-10-09T11:54:25.245Z,2.50
2017-10-09T11:56:27.682Z,2.10
2017-10-09T11:58:30.170Z,2.30
2017-10-09T12:00:32.603Z,2.77
2017-10-09T12:02:35.041Z,2.90
2017-10-09T12:04:37.522Z,2.13
2017-10-09T12:06:39.991Z,2.00
2017-10-09T12:08:42.458Z,2.20
2017-10-09T12:10:44.920Z,2.37
2017-10-09T12:12:47.368Z,2.40
2017-10-09T12:14:49.865Z,2.20
2017-10-09T12:16:52.316Z,2.33
2017-10-09T12:18:54.815Z,2.27
2017-10-09T12:20:57.248Z,2.33
2017-10-09T12:22:59.749Z,2.90
2017-10-09T12:25:02.197Z,3.07
2017-10-09T12:27:04.684Z,2.90
2017-10-09T12:29:07.165Z,2.40
2017-10-09T12:31:09.624Z,2.77
2017-10-09T12:33:12.073Z,2.93
2017-10-09T12:35:14.565Z,2.43
2017-10-09T12:37:16.999Z,2.40
2017-10-09T12:39:19.442Z,2.60
2017-10-09T12:41:21.956Z,2.47
2017-10-09T12:43:24.409Z,2.90
2017-10-09T12:45:26.849Z,2.70
2017-10-09T12:47:29.305Z,2.20
2017-10-09T12:49:31.756Z,2.87
2017-10-09T12:51:34.454Z,2.30
2017-10-09T12:53:36.996Z,2.60
2017-10-09T12:55:39.472Z,3.40
2017-10-09T12:57:41.945Z,2.40
2017-10-09T12:59:44.400Z,3.60
2017-10-09T13:01:46.832Z,2.30
2017-10-09T13:03:49.272Z,2.50
2017-10-09T13:05:51.737Z,2.60
2017-10-09T13:07:54.209Z,2.17
2017-10-09T13:09:56.648Z,2.83
2017-10-09T13:11:59.186Z,2.40
2017-10-09T13:14:01.621Z,3.60
2017-10-09T13:16:04.113Z,3.13
2017-10-09T13:18:06.644Z,3.10
2017-10-09T13:20:09.109Z,2.43
2017-10-09T13:22:11.566Z,2.70
2017-10-09T13:24:14.033Z,2.70
2017-10-09T13:26:16.468Z,2.80
2017-10-09T13:28:18.901Z,2.57
2017-10-09T13:30:21.465Z,2.70
2017-10-09T13:32:23.956Z,2.93
2017-10-09T13:34:26.428Z,2.40
2017-10-09T13:36:28.889Z,2.50
2017-10-09T13:38:31.323Z,3.13
2017-10-09T13:40:33.764Z,2.60
2017-10-09T13:42:36.289Z,3.30
2017-10-09T13:44:38.739Z,2.70
2017-10-09T13:46:41.189Z,3.23
2017-10-09T13:48:43.701Z,2.70
2017-10-09T13:50:46.141Z,3.03
2017-10-09T13:52:48.700Z,2.60
2017-10-09T13:54:51.188Z,2.67
2017-10-09T13:56:53.732Z,2.30
2017-10-09T13:58:56.189Z,2.87
2017-10-09T14:00:58.652Z,2.50
2017-10-09T14:03:01.152Z,3.43
2017-10-09T14:05:03.584Z,2.87
2017-10-09T14:07:06.052Z,2.57
2017-10-09T14:09:08.490Z,2.40
2017-10-09T14:11:10.932Z,2.53
2017-10-09T14:13:13.393Z,2.30
2017-10-09T14:15:15.990Z,2.97
2017-10-09T14:17:18.504Z,2.60
2017-10-09T14:19:21.123Z,2.80
2017-10-09T14:21:23.574Z,2.60
2017-10-09T14:23:26.022Z,2.90
2017-10-09T14:25:28.569Z,3.50
2017-10-09T14:27:31.000Z,3.10
2017-10-09T14:29:33.451Z,2.80
2017-10-09T14:39:45.750Z,3.20
2017-10-09T14:41:48.210Z,2.57
2017-10-09T14:43:50.720Z,2.70
2017-10-09T14:45:53.256Z,3.00
2017-10-09T14:47:55.694Z,2.40
2017-10-09T14:49:58.226Z,2.10
2017-10-09T14:52:00.676Z,2.93
2017-10-09T14:54:03.163Z,2.53
2017-10-09T14:56:05.721Z,3.20
2017-10-09T14:58:08.185Z,2.60
2017-10-09T15:00:10.692Z,2.60
2017-10-09T15:02:13.161Z,2.83
2017-10-09T15:04:15.716Z,2.97
2017-10-09T15:06:18.188Z,2.50
2017-10-09T15:08:20.648Z,2.87
2017-10-09T15:10:23.127Z,2.80
2017-10-09T15:12:25.572Z,2.57
2017-10-09T15:14:28.054Z,3.10
2017-10-09T15:16:30.526Z,3.00
2017-10-09T15:18:32.960Z,2.70
2017-10-09T15:20:35.457Z,2.27
2017-10-09T15:22:37.902Z,2.67
2017-10-09T15:24:40.352Z,2.67
2017-10-09T15:26:42.814Z,2.63
2017-10-09T15:28:45.247Z,2.93
2017-10-09T15:30:47.723Z,3.80
2017-10-09T15:32:50.282Z,3.13
2017-10-09T15:34:52.822Z,2.90
2017-10-09T15:36:55.290Z,2.43
2017-10-09T15:38:57.755Z,3.17
2017-10-09T15:41:00.231Z,2.50
2017-10-09T15:43:02.678Z,2.70
2017-10-09T15:45:05.164Z,3.20
2017-10-09T15:47:07.620Z,2.40
2017-10-09T15:49:10.152Z,2.70
2017-10-09T15:51:12.723Z,2.40
2017-10-09T15:53:15.179Z,2.50
2017-10-09T15:55:17.742Z,2.60
2017-10-09T15:57:20.204Z,2.70
2017-10-09T15:59:22.635Z,2.70
2017-10-09T16:01:25.071Z,2.50
2017-10-09T16:03:27.530Z,2.50
2017-10-09T16:05:30.051Z,2.67
2017-10-09T16:07:32.532Z,2.50
2017-10-09T16:09:34.989Z,2.73
2017-10-09T16:11:37.489Z,2.63
2017-10-09T16:13:39.916Z,2.70
2017-10-09T16:15:42.460Z,2.50
2017-10-09T16:17:44.900Z,2.33
2017-10-09T16:19:47.331Z,2.30
2017-10-09T16:21:49.804Z,2.63
2017-10-09T16:23:52.261Z,2.80
2017-10-09T16:25:54.699Z,2.40
2017-10-09T16:27:57.169Z,2.50
2017-10-09T16:29:59.620Z,2.60
2017-10-09T16:32:02.128Z,2.47
2017-10-09T16:34:04.595Z,2.60
2017-10-09T16:36:07.029Z,2.73
2017-10-09T16:38:09.484Z,2.60
2017-10-09T16:40:12.009Z,2.27
2017-10-09T16:42:14.497Z,2.60
2017-10-09T16:44:16.937Z,2.70
2017-10-09T16:46:19.494Z,2.60
2017-10-09T16:48:21.964Z,2.30
2017-10-09T16:50:24.424Z,2.50
2017-10-09T16:52:26.925Z,2.10
2017-10-09T16:54:29.363Z,2.70
2017-10-09T16:56:31.910Z,2.50
2017-10-09T16:58:34.364Z,2.67
2017-10-09T17:00:36.873Z,2.97
2017-10-09T17:02:39.312Z,2.53
2017-10-09T17:04:41.770Z,2.23
2017-10-09T17:06:44.228Z,2.10
2017-10-09T17:08:46.689Z,2.33
2017-10-09T17:10:49.149Z,2.43
2017-10-09T17:12:51.628Z,2.47
2017-10-09T17:14:54.115Z,2.10
2017-10-09T17:16:56.599Z,2.30
2017-10-09T17:18:59.120Z,2.30
2017-10-09T17:21:01.581Z,1.90
2017-10-09T17:23:04.053Z,2.40
2017-10-09T17:25:06.493Z,2.40
2017-10-09T17:27:08.943Z,2.33
2017-10-09T17:29:11.496Z,2.43
2017-10-09T17:31:13.946Z,2.43
2017-10-09T17:33:16.438Z,2.40
2017-10-09T17:35:18.918Z,2.57
2017-10-09T17:37:21.372Z,1.83
2017-10-09T17:39:23.808Z,2.00
2017-10-09T17:41:26.326Z,2.57
2017-10-09T17:43:28.763Z,2.40
2017-10-09T17:45:31.196Z,2.30
2017-10-09T17:47:33.648Z,2.57
2017-10-09T17:49:36.086Z,2.30
2017-10-09T17:51:38.526Z,2.17
2017-10-09T17:53:40.990Z,2.67
2017-10-09T17:55:43.446Z,2.77
2017-10-09T17:57:46.092Z,2.27
2017-10-09T17:59:48.564Z,2.50
2017-10-09T18:01:50.996Z,2.47
2017-10-09T18:03:53.445Z,2.07
2017-10-09T18:05:55.949Z,2.07
2017-10-09T18:07:58.395Z,2.27
2017-10-09T18:10:00.845Z,2.17
2017-10-09T18:12:03.311Z,2.83
2017-10-09T18:14:05.757Z,2.53
2017-10-09T18:16:08.205Z,2.20
2017-10-09T18:18:10.675Z,2.47
2017-10-09T18:20:13.219Z,2.50
2017-10-09T18:22:15.685Z,2.23
2017-10-09T18:24:18.147Z,2.60
2017-10-09T18:26:20.594Z,2.20
2017-10-09T18:28:23.052Z,2.67
2017-10-09T18:30:25.527Z,2.00
2017-10-09T18:32:28.032Z,2.47
2017-10-09T18:34:30.476Z,2.50
2017-10-09T18:36:33.020Z,2.40
2017-10-09T18:38:35.477Z,2.47
2017-10-09T18:40:37.931Z,1.73
2017-10-09T18:42:40.595Z,2.77
2017-10-09T18:44:44.356Z,2.60
2017-10-09T18:46:46.912Z,2.43
2017-10-09T18:48:50.323Z,2.37
2017-10-09T18:50:52.832Z,2.27
2017-10-09T18:52:55.278Z,2.40
2017-10-09T18:54:57.878Z,2.70
2017-10-09T18:57:00.332Z,2.20
2017-10-09T18:59:02.908Z,2.30
2017-10-09T19:01:05.444Z,2.23
2017-10-09T19:03:07.898Z,2.10
2017-10-09T19:05:10.874Z,2.70
2017-10-09T19:07:14.973Z,1.83
2017-10-09T19:09:17.927Z,1.97
2017-10-09T19:11:20.902Z,2.40
2017-10-09T19:13:23.419Z,2.07
2017-10-09T19:15:25.862Z,2.43
2017-10-09T19:17:28.344Z,2.17
2017-10-09T19:19:30.820Z,1.87
2017-10-09T19:21:33.297Z,2.30
2017-10-09T19:23:35.727Z,2.53
2017-10-09T19:25:38.196Z,2.57
2017-10-09T19:27:40.637Z,2.27
2017-10-09T19:29:43.073Z,1.70
2017-10-09T19:31:45.540Z,2.30
2017-10-09T19:33:47.980Z,1.90
2017-10-09T19:35:50.498Z,2.40
2017-10-09T19:37:53.060Z,2.30
2017-10-09T19:39:55.523Z,2.80
2017-10-09T19:41:57.974Z,2.17
2017-10-09T19:44:00.464Z,2.20
2017-10-09T19:46:02.910Z,2.00
2017-10-09T19:48:05.412Z,2.37
2017-10-09T19:50:07.883Z,2.17
2017-10-09T19:52:10.317Z,2.00
2017-10-09T19:54:12.841Z,2.33
2017-10-09T19:56:15.312Z,2.17
2017-10-09T19:58:17.840Z,2.37
2017-10-09T20:00:20.524Z,2.23
2017-10-09T20:02:23.004Z,2.20
2017-10-09T20:04:25.484Z,2.30
2017-10-09T20:06:27.956Z,2.20
2017-10-09T20:08:30.430Z,2.50
2017-10-09T20:10:32.892Z,2.60
2017-10-09T20:12:35.330Z,1.97
2017-10-09T20:14:37.851Z,2.57
2017-10-09T20:16:40.299Z,1.80
2017-10-09T20:18:42.777Z,1.97
2017-10-09T20:20:45.385Z,2.30
2017-10-09T20:22:47.824Z,1.90
2017-10-09T20:24:50.265Z,2.33
2017-10-09T20:26:52.728Z,2.23
2017-10-09T20:28:55.191Z,1.97
2017-10-09T20:30:57.682Z,2.30
2017-10-09T20:33:00.152Z,1.97
2017-10-09T20:35:02.601Z,2.70
2017-10-09T20:37:05.115Z,2.30
2017-10-09T20:39:07.570Z,2.43
2017-10-09T20:41:10.041Z,2.20
2017-10-09T20:43:12.490Z,1.90
2017-10-09T20:45:14.956Z,2.53
2017-10-09T20:47:17.392Z,2.20
2017-10-09T20:49:19.925Z,1.90
2017-10-09T20:51:22.391Z,2.17
2017-10-09T20:53:24.842Z,2.30
2017-10-09T20:55:27.285Z,2.60
2017-10-09T20:57:29.765Z,2.07
2017-10-09T20:59:32.216Z,1.80
2017-10-09T21:01:34.920Z,2.53
2017-10-09T21:03:37.381Z,2.60
2017-10-09T21:05:39.827Z,2.30
2017-10-09T21:07:42.276Z,2.13
2017-10-09T21:09:44.935Z,2.00
2017-10-09T21:11:47.440Z,2.20
2017-10-09T21:13:49.977Z,2.40
2017-10-09T21:15:52.658Z,1.93
2017-10-09T21:17:55.101Z,2.60
2017-10-09T21:19:57.537Z,1.77
2017-10-09T21:22:00.012Z,2.10
2017-10-09T21:24:02.459Z,2.30
2017-10-09T21:26:04.902Z,2.00
2017-10-09T21:28:07.368Z,2.13
2017-10-09T21:30:09.822Z,2.03
2017-10-09T21:32:12.256Z,1.97
2017-10-09T21:34:14.717Z,2.00
2017-10-09T21:36:17.162Z,1.90
2017-10-09T21:38:19.704Z,2.47
2017-10-09T21:40:22.199Z,2.00
2017-10-09T21:42:24.632Z,2.00
2017-10-09T21:44:27.138Z,2.00
2017-10-09T21:46:29.598Z,2.10
2017-10-09T21:48:32.082Z,2.20
2017-10-09T21:50:34.538Z,2.07
2017-10-09T21:52:37.009Z,2.50
2017-10-09T21:54:39.445Z,1.93
2017-10-09T21:56:41.889Z,1.97
2017-10-09T21:58:44.386Z,2.10
2017-10-09T22:00:46.842Z,1.90
2017-10-09T22:02:49.428Z,2.03
2017-10-09T22:04:51.889Z,1.90
2017-10-09T22:06:54.404Z,1.90
2017-10-09T22:08:56.844Z,1.70
2017-10-09T22:10:59.297Z,1.70
2017-10-09T22:13:01.745Z,2.03
2017-10-09T22:15:04.191Z,2.13
2017-10-09T22:17:06.657Z,1.97
2017-10-09T22:19:09.119Z,2.00
2017-10-09T22:21:11.569Z,1.97
2017-10-09T22:23:14.039Z,2.20
2017-10-09T22:25:16.497Z,2.07
2017-10-09T22:27:18.929Z,1.93
2017-10-09T22:29:21.425Z,2.03
2017-10-09T22:31:23.874Z,2.30
2017-10-09T22:33:26.312Z,1.97
2017-10-09T22:35:28.769Z,2.07
2017-10-09T22:37:31.244Z,2.23
2017-10-09T22:39:33.696Z,2.27
2017-10-09T22:41:36.160Z,2.20
2017-10-09T22:43:38.607Z,2.03
2017-10-09T22:45:41.133Z,2.13
2017-10-09T22:47:43.613Z,1.87
2017-10-09T22:49:46.140Z,1.97
2017-10-09T22:51:48.582Z,2.07
2017-10-09T22:53:51.121Z,2.13
2017-10-09T22:55:53.576Z,2.10
2017-10-09T22:57:56.054Z,2.10
2017-10-09T22:59:58.514Z,1.80
2017-10-09T23:02:00.941Z,1.90
2017-10-09T23:04:03.545Z,1.87
2017-10-09T23:06:06.007Z,2.30
2017-10-09T23:08:08.470Z,2.10
2017-10-09T23:10:11.864Z,2.00
2017-10-09T23:12:14.336Z,1.90
2017-10-09T23:14:16.860Z,2.50
2017-10-09T23:16:19.307Z,2.20
2017-10-09T23:18:21.770Z,2.07
2017-10-09T23:20:24.215Z,2.40
2017-10-09T23:22:26.728Z,2.00
2017-10-09T23:24:29.194Z,1.80
2017-10-09T23:26:31.625Z,2.00
2017-10-09T23:28:34.072Z,2.13
2017-10-09T23:30:36.534Z,2.40
2017-10-09T23:32:39.080Z,2.20
2017-10-09T23:34:41.521Z,2.10
2017-10-09T23:36:43.981Z,2.00
2017-10-09T23:38:46.491Z,1.93
2017-10-09T23:40:48.960Z,1.77
2017-10-09T23:42:51.438Z,2.90
2017-10-09T23:44:53.887Z,2.00
2017-10-09T23:46:56.373Z,1.90
2017-10-09T23:48:58.942Z,2.20
2017-10-09T23:51:01.418Z,2.00
2017-10-09T23:53:03.861Z,1.97
2017-10-09T23:55:06.324Z,2.00
2017-10-09T23:57:08.765Z,1.70
2017-10-09T23:59:11.299Z,2.17
